Hector N — 3FEL3 — position and weather

sailwx.info

Track history (hours):
 
Tides and Currents Weather Stations Pressure Air Temp Water Temp Dewpoint Dewpoint Depression Visibility Wind Speed Wind Dir Waves Ship Positions

Hector N

Last reported at 2017-Sep-26 19:13 UTC. Time now 2017-Oct-19 00:25 UTC.
Position N 41°15' W 071°57'.
Warning: this ship's position is 22 days out of date.

Length 183 m; draft 8.9 m.

Type: Ship. MMSI: 356251000.

Date/timePositionNaut miles runAvg speedWind from/ knotsBaromVisibWave heightAir tempDewpointWater temp
2017-Sep-26 19:13N 41°15' W 071°57'211.6
2017-Sep-26 19:01N 41°14' W 072°00'611.3
2017-Sep-26 18:30N 41°14' W 072°08'611.3
2017-Sep-26 18:01N 41°12' W 072°15'611.3
2017-Sep-26 17:31N 41°10' W 072°22'611.4
2017-Sep-26 17:00N 41°09' W 072°30'611.3
2017-Sep-26 16:31N 41°09' W 072°37'611.6
2017-Sep-26 16:01N 41°10' W 072°45'9 0.2
2017-Sep-24 20:36N 41°14' W 072°55'210.6
2017-Sep-24 20:23N 41°12' W 072°54'2 4.1
2017-Sep-24 19:57N 41°11' W 072°52'2 3.9
2017-Sep-24 19:30N 41°11' W 072°50'612.6
2017-Sep-24 19:00N 41°11' W 072°42'713.3
2017-Sep-24 18:30N 41°10' W 072°33'713.6
2017-Sep-24 18:00N 41°11' W 072°24'714.5
2017-Sep-24 17:30N 41°13' W 072°14'714.3
2017-Sep-24 17:00N 41°14' W 072°05'30 8.7
2017-Sep-24 13:30N 41°00' W 071°29'15 6.6
2017-Sep-24 11:17N 40°49' W 071°41'2 0.7
2017-Sep-24 09:08N 40°50' W 071°40'1 0.6
2017-Sep-24 07:46N 40°51' W 071°39'0 0.7
2017-Sep-24 07:25N 40°51' W 071°39'0 0.7
2017-Sep-24 06:55N 40°51' W 071°39'0 0.6
2017-Sep-24 06:30N 40°51' W 071°38'0 0.6
2017-Sep-24 06:01N 40°52' W 071°38'0 0.6
2017-Sep-24 05:22N 40°52' W 071°38'0 0.5
2017-Sep-24 05:00N 40°52' W 071°37'0 0.6
2017-Sep-24 04:29N 40°52' W 071°37'0 0.7
2017-Sep-24 04:00N 40°52' W 071°37'0 0.8
2017-Sep-24 03:30N 40°52' W 071°36'1 0.9
2017-Sep-24 02:47N 40°52' W 071°35'0 1.0
2017-Sep-24 02:30N 40°52' W 071°35'1 1.1
2017-Sep-24 01:55N 40°52' W 071°34'0 1.2
2017-Sep-24 01:31N 40°52' W 071°33'1 1.3
2017-Sep-24 01:00N 40°52' W 071°33'1 1.4
2017-Sep-24 00:21N 40°52' W 071°31'0 1.4
2017-Sep-24 00:00N 40°52' W 071°31'2 1.1
2017-Sep-23 22:39N 40°52' W 071°29'  
2017-Sep-21 00:59N 40°29' W 073°51'4 8.8
2017-Sep-21 00:29N 40°30' W 073°56'5 9.6
2017-Sep-21 00:00N 40°32' W 074°01'510.1
2017-Sep-20 23:30N 40°37' W 074°03'1 2.7
2017-Sep-20 22:59N 40°38' W 074°04'0 0.2
2017-Sep-20 22:29N 40°38' W 074°04'0 0.2
2017-Sep-20 21:59N 40°38' W 074°04'0 0.1
2017-Sep-20 21:29N 40°38' W 074°04'0 0.0
2017-Sep-20 20:59N 40°38' W 074°04'0 0.0
2017-Sep-20 20:29N 40°38' W 074°04'0 0.0
2017-Sep-20 19:59N 40°38' W 074°04'0 0.0
2017-Sep-20 19:29N 40°38' W 074°04'0 0.0
2017-Sep-20 18:59N 40°38' W 074°04'0 0.2
2017-Sep-20 18:30N 40°38' W 074°04'2 3.8
2017-Sep-20 18:00N 40°39' W 074°06'4 7.6
2017-Sep-20 17:30N 40°39' W 074°11'2 0.3
2017-Sep-20 09:43N 40°36' W 074°12'0 0.0
2017-Sep-20 09:25N 40°36' W 074°12'0 0.0
2017-Sep-20 06:19N 40°36' W 074°12'0 0.0
2017-Sep-20 05:49N 40°36' W 074°12'0 0.0
2017-Sep-20 05:19N 40°36' W 074°12'0 0.0
2017-Sep-20 04:49N 40°36' W 074°12'0 0.0
2017-Sep-20 01:10N 40°36' W 074°12'0 0.0
2017-Sep-20 00:47N 40°36' W 074°12'0 0.0
2017-Sep-20 00:30N 40°36' W 074°12'1 1.9
2017-Sep-20 00:00N 40°36' W 074°12'3 5.6
2017-Sep-19 23:30N 40°33' W 074°15'1 0.0
2017-Sep-17 23:52N 40°33' W 074°15'1 3.2
2017-Sep-17 23:30N 40°33' W 074°14'2 4.6
2017-Sep-17 23:00N 40°35' W 074°12'2 4.1
2017-Sep-17 22:30N 40°37' W 074°12'2 5.1
2017-Sep-17 22:00N 40°39' W 074°09'3 6.8
2017-Sep-17 21:31N 40°39' W 074°05'2 3.2
2017-Sep-17 20:59N 40°39' W 074°03'0 0.1
2017-Sep-17 20:29N 40°39' W 074°03'0 0.0
2017-Sep-17 19:56N 40°39' W 074°03'0 0.0
2017-Sep-17 19:29N 40°39' W 074°03'0 0.1
2017-Sep-17 18:59N 40°39' W 074°03'0 0.2
2017-Sep-17 18:29N 40°39' W 074°03'0 0.2
2017-Sep-17 17:59N 40°39' W 074°03'0 0.0
2017-Sep-17 17:29N 40°39' W 074°03'0 0.0
2017-Sep-17 16:59N 40°39' W 074°03'0 0.0
2017-Sep-17 16:29N 40°39' W 074°03'0 0.0
2017-Sep-17 15:59N 40°39' W 074°03'0 0.0
2017-Sep-17 15:29N 40°39' W 074°03'0 0.0
2017-Sep-17 14:59N 40°39' W 074°03'0 0.1
2017-Sep-17 14:29N 40°39' W 074°03'0 0.2
2017-Sep-17 13:59N 40°39' W 074°03'0 0.1
2017-Sep-17 13:29N 40°39' W 074°03'0 0.3
2017-Sep-17 12:59N 40°39' W 074°03'0 0.2
2017-Sep-17 12:29N 40°39' W 074°03'0 0.0
2017-Sep-17 11:59N 40°39' W 074°03'0 0.0
2017-Sep-17 11:29N 40°39' W 074°03'0 0.2
2017-Sep-17 11:00N 40°39' W 074°03'2 4.3
2017-Sep-17 10:31N 40°37' W 074°03'5 9.4
2017-Sep-17 10:00N 40°32' W 074°01'612.4
2017-Sep-17 09:31N 40°29' W 073°54'5 9.3
2017-Sep-17 08:58N 40°28' W 073°48'3 4.8
2017-Sep-17 08:24N 40°28' W 073°44'2 4.1
2017-Sep-17 07:52N 40°29' W 073°41'2 4.7
2017-Sep-17 07:29N 40°29' W 073°39'0 0.5
2017-Sep-17 06:47N 40°30' W 073°39'0 0.0
2017-Sep-17 06:23N 40°30' W 073°39'0 0.1
2017-Sep-17 04:53N 40°30' W 073°39'0 0.1
2017-Sep-17 04:26N 40°30' W 073°39'0 0.1
2017-Sep-17 03:53N 40°30' W 073°39'0 0.0
2017-Sep-17 03:23N 40°30' W 073°39'0 0.0
2017-Sep-17 02:59N 40°30' W 073°39'0 0.0
2017-Sep-17 02:29N 40°30' W 073°39'0 0.0
2017-Sep-17 01:59N 40°30' W 073°39'  
Track history (hours):
 
Tides and Currents Weather Stations Pressure Air Temp Water Temp Dewpoint Dewpoint Depression Visibility Wind Speed Wind Dir Waves Ship Positions

Hector N

Last reported at 2017-Sep-26 19:13 UTC. Time now 2017-Oct-19 00:25 UTC.
Position N 41°15' W 071°57'.
Warning: this ship's position is 22 days out of date.

Length 183 m; draft 8.9 m.

Type: Ship. MMSI: 356251000.

Date/timePositionNaut miles runAvg speedWind from/ knotsBaromVisibWave heightAir tempDewpointWater temp
2017-Sep-26 19:13N 41°15' W 071°57'211.6
2017-Sep-26 19:01N 41°14' W 072°00'611.3
2017-Sep-26 18:30N 41°14' W 072°08'611.3
2017-Sep-26 18:01N 41°12' W 072°15'611.3
2017-Sep-26 17:31N 41°10' W 072°22'611.4
2017-Sep-26 17:00N 41°09' W 072°30'611.3
2017-Sep-26 16:31N 41°09' W 072°37'611.6
2017-Sep-26 16:01N 41°10' W 072°45'9 0.2
2017-Sep-24 20:36N 41°14' W 072°55'210.6
2017-Sep-24 20:23N 41°12' W 072°54'2 4.1
2017-Sep-24 19:57N 41°11' W 072°52'2 3.9
2017-Sep-24 19:30N 41°11' W 072°50'612.6
2017-Sep-24 19:00N 41°11' W 072°42'713.3
2017-Sep-24 18:30N 41°10' W 072°33'713.6
2017-Sep-24 18:00N 41°11' W 072°24'714.5
2017-Sep-24 17:30N 41°13' W 072°14'714.3
2017-Sep-24 17:00N 41°14' W 072°05'30 8.7
2017-Sep-24 13:30N 41°00' W 071°29'15 6.6
2017-Sep-24 11:17N 40°49' W 071°41'2 0.7
2017-Sep-24 09:08N 40°50' W 071°40'1 0.6
2017-Sep-24 07:46N 40°51' W 071°39'0 0.7
2017-Sep-24 07:25N 40°51' W 071°39'0 0.7
2017-Sep-24 06:55N 40°51' W 071°39'0 0.6
2017-Sep-24 06:30N 40°51' W 071°38'0 0.6
2017-Sep-24 06:01N 40°52' W 071°38'0 0.6
2017-Sep-24 05:22N 40°52' W 071°38'0 0.5
2017-Sep-24 05:00N 40°52' W 071°37'0 0.6
2017-Sep-24 04:29N 40°52' W 071°37'0 0.7
2017-Sep-24 04:00N 40°52' W 071°37'0 0.8
2017-Sep-24 03:30N 40°52' W 071°36'1 0.9
2017-Sep-24 02:47N 40°52' W 071°35'0 1.0
2017-Sep-24 02:30N 40°52' W 071°35'1 1.1
2017-Sep-24 01:55N 40°52' W 071°34'0 1.2
2017-Sep-24 01:31N 40°52' W 071°33'1 1.3
2017-Sep-24 01:00N 40°52' W 071°33'1 1.4
2017-Sep-24 00:21N 40°52' W 071°31'0 1.4
2017-Sep-24 00:00N 40°52' W 071°31'2 1.1
2017-Sep-23 22:39N 40°52' W 071°29'  
2017-Sep-21 00:59N 40°29' W 073°51'4 8.8
2017-Sep-21 00:29N 40°30' W 073°56'5 9.6
2017-Sep-21 00:00N 40°32' W 074°01'510.1
2017-Sep-20 23:30N 40°37' W 074°03'1 2.7
2017-Sep-20 22:59N 40°38' W 074°04'0 0.2
2017-Sep-20 22:29N 40°38' W 074°04'0 0.2
2017-Sep-20 21:59N 40°38' W 074°04'0 0.1
2017-Sep-20 21:29N 40°38' W 074°04'0 0.0
2017-Sep-20 20:59N 40°38' W 074°04'0 0.0
2017-Sep-20 20:29N 40°38' W 074°04'0 0.0
2017-Sep-20 19:59N 40°38' W 074°04'0 0.0
2017-Sep-20 19:29N 40°38' W 074°04'0 0.0
2017-Sep-20 18:59N 40°38' W 074°04'0 0.2
2017-Sep-20 18:30N 40°38' W 074°04'2 3.8
2017-Sep-20 18:00N 40°39' W 074°06'4 7.6
2017-Sep-20 17:30N 40°39' W 074°11'2 0.3
2017-Sep-20 09:43N 40°36' W 074°12'0 0.0
2017-Sep-20 09:25N 40°36' W 074°12'0 0.0
2017-Sep-20 06:19N 40°36' W 074°12'0 0.0
2017-Sep-20 05:49N 40°36' W 074°12'0 0.0
2017-Sep-20 05:19N 40°36' W 074°12'0 0.0
2017-Sep-20 04:49N 40°36' W 074°12'0 0.0
2017-Sep-20 01:10N 40°36' W 074°12'0 0.0
2017-Sep-20 00:47N 40°36' W 074°12'0 0.0
2017-Sep-20 00:30N 40°36' W 074°12'1 1.9
2017-Sep-20 00:00N 40°36' W 074°12'3 5.6
2017-Sep-19 23:30N 40°33' W 074°15'1 0.0
2017-Sep-17 23:52N 40°33' W 074°15'1 3.2
2017-Sep-17 23:30N 40°33' W 074°14'2 4.6
2017-Sep-17 23:00N 40°35' W 074°12'2 4.1
2017-Sep-17 22:30N 40°37' W 074°12'2 5.1
2017-Sep-17 22:00N 40°39' W 074°09'3 6.8
2017-Sep-17 21:31N 40°39' W 074°05'2 3.2
2017-Sep-17 20:59N 40°39' W 074°03'0 0.1
2017-Sep-17 20:29N 40°39' W 074°03'0 0.0
2017-Sep-17 19:56N 40°39' W 074°03'0 0.0
2017-Sep-17 19:29N 40°39' W 074°03'0 0.1
2017-Sep-17 18:59N 40°39' W 074°03'0 0.2
2017-Sep-17 18:29N 40°39' W 074°03'0 0.2
2017-Sep-17 17:59N 40°39' W 074°03'0 0.0
2017-Sep-17 17:29N 40°39' W 074°03'0 0.0
2017-Sep-17 16:59N 40°39' W 074°03'0 0.0
2017-Sep-17 16:29N 40°39' W 074°03'0 0.0
2017-Sep-17 15:59N 40°39' W 074°03'0 0.0
2017-Sep-17 15:29N 40°39' W 074°03'0 0.0
2017-Sep-17 14:59N 40°39' W 074°03'0 0.1
2017-Sep-17 14:29N 40°39' W 074°03'0 0.2
2017-Sep-17 13:59N 40°39' W 074°03'0 0.1
2017-Sep-17 13:29N 40°39' W 074°03'0 0.3
2017-Sep-17 12:59N 40°39' W 074°03'0 0.2
2017-Sep-17 12:29N 40°39' W 074°03'0 0.0
2017-Sep-17 11:59N 40°39' W 074°03'0 0.0
2017-Sep-17 11:29N 40°39' W 074°03'0 0.2
2017-Sep-17 11:00N 40°39' W 074°03'2 4.3
2017-Sep-17 10:31N 40°37' W 074°03'5 9.4
2017-Sep-17 10:00N 40°32' W 074°01'612.4
2017-Sep-17 09:31N 40°29' W 073°54'5 9.3
2017-Sep-17 08:58N 40°28' W 073°48'3 4.8
2017-Sep-17 08:24N 40°28' W 073°44'2 4.1
2017-Sep-17 07:52N 40°29' W 073°41'2 4.7
2017-Sep-17 07:29N 40°29' W 073°39'0 0.5
2017-Sep-17 06:47N 40°30' W 073°39'0 0.0
2017-Sep-17 06:23N 40°30' W 073°39'0 0.1
2017-Sep-17 04:53N 40°30' W 073°39'0 0.1
2017-Sep-17 04:26N 40°30' W 073°39'0 0.1
2017-Sep-17 03:53N 40°30' W 073°39'0 0.0
2017-Sep-17 03:23N 40°30' W 073°39'0 0.0
2017-Sep-17 02:59N 40°30' W 073°39'0 0.0
2017-Sep-17 02:29N 40°30' W 073°39'0 0.0
2017-Sep-17 01:59N 40°30' W 073°39'  

Dump ship's entire track history